Time;durP1;ratioP1;P1;durP2;ratioP2;P2;SDS_P1;SDS_P2;PMS_P1;PMS_P2;Temp;Humidity;BMP_temperature;BMP_pressure;BME280_temperature;BME280_humidity;BME280_pressure;Samples;Min_cycle;Max_cycle;Signal;HPM_P1;HPM_P2
2021/12/29 00:01:20;;;;;;;17.75;6.35;;;7.80;99.90;;;;;;5012084;28;20503;-87
2021/12/29 00:03:45;;;;;;;15.52;6.57;;;7.80;99.90;;;;;;5010970;28;20121;-86
2021/12/29 00:06:11;;;;;;;15.40;6.55;;;7.70;99.90;;;;;;5011779;28;20125;-87
2021/12/29 00:08:37;;;;;;;14.00;6.03;;;7.70;99.90;;;;;;4995632;28;20042;-87
2021/12/29 00:11:03;;;;;;;15.07;7.03;;;7.70;99.90;;;;;;4995659;28;20050;-86
2021/12/29 00:13:30;;;;;;;15.95;6.03;;;7.70;99.90;;;;;;4995466;28;20049;-87
2021/12/29 00:16:00;;;;;;;16.25;7.60;;;7.70;99.90;;;;;;5011819;28;20419;-87
2021/12/29 00:18:28;;;;;;;17.00;6.88;;;7.60;99.90;;;;;;5011768;28;20080;-87
2021/12/29 00:20:55;;;;;;;15.90;6.47;;;7.60;99.90;;;;;;4995303;28;20536;-86
2021/12/29 00:23:20;;;;;;;17.77;6.07;;;7.60;99.90;;;;;;5009628;28;20558;-86
2021/12/29 00:25:46;;;;;;;17.35;6.53;;;7.60;99.90;;;;;;5010980;28;20030;-86
2021/12/29 00:28:12;;;;;;;17.13;6.50;;;7.50;99.90;;;;;;5011267;28;20518;-86
2021/12/29 00:30:38;;;;;;;13.73;5.93;;;7.50;99.90;;;;;;5009198;28;20042;-86
2021/12/29 00:33:04;;;;;;;13.98;5.97;;;7.60;99.90;;;;;;4994539;28;20535;-86
2021/12/29 00:35:29;;;;;;;13.23;5.80;;;7.60;99.90;;;;;;5011146;28;20045;-86
2021/12/29 00:37:59;;;;;;;12.63;5.68;;;7.60;99.90;;;;;;5010839;28;20081;-86
2021/12/29 00:40:25;;;;;;;12.68;5.43;;;7.60;99.90;;;;;;4994573;28;20045;-86
2021/12/29 00:42:50;;;;;;;12.25;5.43;;;7.70;99.90;;;;;;5010980;28;20042;-86
2021/12/29 00:45:16;;;;;;;13.85;5.15;;;7.60;99.90;;;;;;5011039;28;20049;-86
2021/12/29 00:47:42;;;;;;;13.70;5.07;;;7.70;99.90;;;;;;5011082;28;20037;-86
2021/12/29 00:50:13;;;;;;;14.43;5.25;;;7.60;99.90;;;;;;4994680;28;20131;-86
2021/12/29 00:52:39;;;;;;;14.00;5.75;;;7.60;99.90;;;;;;4994831;28;20519;-85
2021/12/29 00:55:05;;;;;;;15.20;5.57;;;7.60;99.90;;;;;;5010817;28;20044;-86
2021/12/29 00:57:31;;;;;;;14.00;5.68;;;7.70;99.90;;;;;;5010991;28;20670;-86
2021/12/29 00:59:57;;;;;;;14.40;5.65;;;7.70;99.90;;;;;;5010841;28;20041;-86
2021/12/29 01:02:23;;;;;;;17.33;6.18;;;7.70;99.90;;;;;;5011001;28;20048;-86
2021/12/29 01:04:49;;;;;;;14.32;5.65;;;7.70;99.90;;;;;;5009553;28;20046;-86
2021/12/29 01:07:15;;;;;;;14.45;5.70;;;7.70;99.90;;;;;;5010411;28;20535;-87
2021/12/29 01:09:42;;;;;;;17.33;6.38;;;7.70;99.90;;;;;;4994543;28;20038;-87
2021/12/29 01:12:09;;;;;;;18.02;6.35;;;7.70;99.90;;;;;;5010404;28;20052;-87
2021/12/29 01:14:39;;;;;;;16.63;6.90;;;7.70;99.90;;;;;;4994586;28;20042;-86
2021/12/29 01:17:05;;;;;;;18.88;7.93;;;7.70;99.90;;;;;;4994079;28;20487;-87
2021/12/29 01:19:30;;;;;;;17.48;7.00;;;7.70;99.90;;;;;;5011112;28;20041;-87
2021/12/29 01:21:58;;;;;;;20.27;7.53;;;7.70;99.90;;;;;;4994246;28;20499;-87
2021/12/29 01:24:27;;;;;;;19.40;7.35;;;7.60;99.90;;;;;;5010603;28;20038;-87
2021/12/29 01:26:54;;;;;;;22.58;8.38;;;7.70;99.90;;;;;;4993763;28;20506;-87
2021/12/29 01:29:20;;;;;;;21.73;8.02;;;7.60;99.90;;;;;;4993895;28;20141;-87
2021/12/29 01:31:46;;;;;;;23.90;8.35;;;7.70;99.90;;;;;;4993931;28;20502;-87
2021/12/29 01:34:13;;;;;;;27.15;8.73;;;7.60;99.90;;;;;;4993889;28;20042;-87
2021/12/29 01:36:40;;;;;;;24.73;8.95;;;7.60;99.90;;;;;;5010431;28;20052;-87
2021/12/29 01:39:12;;;;;;;27.58;8.10;;;7.60;99.90;;;;;;5010607;28;20411;-87
2021/12/29 01:41:39;;;;;;;26.73;8.57;;;7.60;99.90;;;;;;5010278;28;20038;-87
2021/12/29 01:44:05;;;;;;;31.08;9.15;;;7.60;99.90;;;;;;5010464;28;20052;-87
2021/12/29 01:46:31;;;;;;;31.45;10.25;;;7.60;99.90;;;;;;5010331;28;20042;-87
2021/12/29 01:48:57;;;;;;;30.83;9.85;;;7.60;99.90;;;;;;5010092;28;20083;-87
2021/12/29 01:51:23;;;;;;;33.30;9.70;;;7.60;99.90;;;;;;5010403;28;20127;-87
2021/12/29 01:54:02;;;;;;;34.22;9.55;;;7.60;99.90;;;;;;5010151;28;20050;-86
2021/12/29 01:56:29;;;;;;;34.63;9.63;;;7.70;99.90;;;;;;4993538;28;20088;-87
2021/12/29 01:58:54;;;;;;;38.80;11.30;;;7.70;99.90;;;;;;4993469;28;20041;-86
2021/12/29 02:01:20;;;;;;;47.92;11.25;;;7.70;99.90;;;;;;5009932;28;20404;-87
2021/12/29 02:03:47;;;;;;;38.65;11.18;;;7.60;99.90;;;;;;4992504;28;20048;-87
2021/12/29 02:06:13;;;;;;;38.38;11.45;;;7.70;99.90;;;;;;5010183;28;20034;-86
2021/12/29 02:08:38;;;;;;;44.03;11.88;;;7.70;99.90;;;;;;4993199;28;20088;-87
2021/12/29 02:11:06;;;;;;;51.78;11.90;;;7.70;99.90;;;;;;5009856;28;20041;-86
2021/12/29 02:13:32;;;;;;;51.10;11.45;;;7.70;99.90;;;;;;4993676;28;20074;-87
2021/12/29 02:15:58;;;;;;;64.10;12.63;;;7.70;99.90;;;;;;5010165;28;20128;-87
2021/12/29 02:18:25;;;;;;;47.80;11.70;;;7.70;99.90;;;;;;5010007;28;20125;-86
2021/12/29 02:20:55;;;;;;;50.92;11.38;;;7.70;99.90;;;;;;4991749;28;20034;-86
2021/12/29 02:23:34;;;;;;;48.42;11.43;;;7.70;99.90;;;;;;5013556;28;20125;-87
2021/12/29 02:26:00;;;;;;;38.47;10.43;;;7.70;99.90;;;;;;5014115;28;20045;-87
2021/12/29 02:28:38;;;;;;;36.38;9.85;;;7.70;99.90;;;;;;5013476;28;20041;-87
2021/12/29 02:31:04;;;;;;;44.08;11.38;;;7.70;99.90;;;;;;5013915;28;20042;-87
2021/12/29 02:33:30;;;;;;;36.83;10.10;;;7.70;99.90;;;;;;4997330;28;20454;-87
2021/12/29 02:35:58;;;;;;;40.78;9.85;;;7.80;99.90;;;;;;5013923;28;20057;-87
2021/12/29 02:38:41;;;;;;;33.63;10.30;;;7.80;99.90;;;;;;4997366;28;20026;-87
2021/12/29 02:41:08;;;;;;;38.75;11.27;;;7.80;99.90;;;;;;5013448;28;20042;-86
2021/12/29 02:43:37;;;;;;;34.03;9.50;;;7.80;99.90;;;;;;4996976;28;20125;-87
2021/12/29 02:46:08;;;;;;;29.27;9.48;;;7.80;99.90;;;;;;5013561;28;20052;-87
2021/12/29 02:48:38;;;;;;;32.25;10.27;;;7.80;99.90;;;;;;4997024;28;20030;-87
2021/12/29 02:51:07;;;;;;;33.75;10.25;;;7.80;99.90;;;;;;5013752;28;20132;-87
2021/12/29 02:53:33;;;;;;;25.25;7.88;;;7.80;99.90;;;;;;5013226;28;20042;-86
2021/12/29 02:55:58;;;;;;;25.23;7.82;;;7.90;99.90;;;;;;5013401;28;20038;-87
2021/12/29 02:58:24;;;;;;;23.27;7.95;;;7.90;99.90;;;;;;5013026;28;20033;-87
2021/12/29 03:00:53;;;;;;;23.10;7.47;;;7.90;99.90;;;;;;5012851;28;20100;-87
2021/12/29 03:03:24;;;;;;;23.52;7.82;;;7.90;99.90;;;;;;5012428;28;20050;-86
2021/12/29 03:05:51;;;;;;;21.25;7.63;;;7.90;99.90;;;;;;4997022;28;20034;-87
2021/12/29 03:08:24;;;;;;;23.23;8.30;;;7.90;99.90;;;;;;5013023;28;20038;-87
2021/12/29 03:10:53;;;;;;;20.48;7.93;;;7.90;99.90;;;;;;4997061;28;20466;-87
2021/12/29 03:13:24;;;;;;;23.42;8.65;;;8.00;99.90;;;;;;4996676;28;20042;-86
2021/12/29 03:15:50;;;;;;;23.20;8.98;;;8.00;99.90;;;;;;5013073;28;20046;-86
2021/12/29 03:18:16;;;;;;;21.75;8.95;;;8.00;99.90;;;;;;5012742;28;20056;-87
2021/12/29 03:20:44;;;;;;;23.75;9.98;;;8.10;99.90;;;;;;5013263;28;20064;-87
2021/12/29 03:23:09;;;;;;;26.88;11.18;;;8.10;99.90;;;;;;5012602;28;20037;-87
2021/12/29 03:25:35;;;;;;;30.83;12.02;;;8.10;99.90;;;;;;5012713;28;20565;-86
2021/12/29 03:28:01;;;;;;;30.08;12.65;;;8.10;99.90;;;;;;5012626;28;20495;-86
2021/12/29 03:30:29;;;;;;;34.05;14.80;;;8.20;99.90;;;;;;4996161;28;20041;-86
2021/12/29 03:33:05;;;;;;;35.35;14.57;;;8.20;99.90;;;;;;5012043;28;20041;-87
2021/12/29 03:35:34;;;;;;;36.78;15.10;;;8.20;99.90;;;;;;5012607;28;20041;-87
2021/12/29 03:38:01;;;;;;;35.50;15.35;;;8.20;99.90;;;;;;4996391;28;20522;-86
2021/12/29 03:40:27;;;;;;;37.03;16.77;;;8.30;99.90;;;;;;5012281;28;20419;-87
2021/12/29 03:42:53;;;;;;;44.30;18.20;;;8.30;99.90;;;;;;5012209;28;20069;-87
2021/12/29 03:45:19;;;;;;;42.65;17.85;;;8.30;99.90;;;;;;4996085;28;20034;-87
2021/12/29 03:47:44;;;;;;;45.63;18.27;;;8.30;99.90;;;;;;5012597;28;20554;-87
2021/12/29 03:50:10;;;;;;;43.28;18.65;;;8.30;99.90;;;;;;5012252;28;20526;-87
2021/12/29 03:52:36;;;;;;;45.30;17.40;;;8.30;99.90;;;;;;5012711;28;20038;-87
2021/12/29 03:55:02;;;;;;;46.28;18.90;;;8.30;99.90;;;;;;5012089;28;20458;-87
2021/12/29 03:57:27;;;;;;;46.05;20.00;;;8.30;99.90;;;;;;4996103;28;20038;-87
2021/12/29 03:59:53;;;;;;;40.42;18.30;;;8.30;99.90;;;;;;5011986;28;20396;-87
2021/12/29 04:02:18;;;;;;;34.47;15.38;;;8.30;99.90;;;;;;4995815;28;20050;-87
2021/12/29 04:04:44;;;;;;;40.30;18.77;;;8.30;99.90;;;;;;4995130;28;20038;-87
2021/12/29 04:07:10;;;;;;;35.83;17.13;;;8.30;99.90;;;;;;5012404;28;20033;-87
2021/12/29 04:09:35;;;;;;;31.20;14.40;;;8.30;99.90;;;;;;4995647;28;20084;-87
2021/12/29 04:12:01;;;;;;;33.28;15.55;;;8.30;99.90;;;;;;4995826;28;20045;-87
2021/12/29 04:14:27;;;;;;;31.65;15.25;;;8.30;99.90;;;;;;5011838;28;20137;-87
2021/12/29 04:16:55;;;;;;;30.73;14.75;;;8.30;99.90;;;;;;4995834;28;20046;-87
2021/12/29 04:19:40;;;;;;;29.42;13.90;;;8.30;99.90;;;;;;4996009;28;20071;-87
2021/12/29 04:22:08;;;;;;;27.08;13.75;;;8.30;99.90;;;;;;5011714;28;20506;-87
2021/12/29 04:24:36;;;;;;;28.63;13.77;;;8.30;99.90;;;;;;5011560;28;20165;-87
2021/12/29 04:27:05;;;;;;;30.27;14.82;;;8.30;99.90;;;;;;5011543;28;20045;-87
2021/12/29 04:29:32;;;;;;;30.42;15.02;;;8.30;99.90;;;;;;5011392;28;20050;-87
2021/12/29 04:31:58;;;;;;;27.60;14.07;;;8.30;99.90;;;;;;5011779;28;20058;-87
2021/12/29 04:34:23;;;;;;;27.20;13.95;;;8.30;99.90;;;;;;5011325;28;20041;-87
2021/12/29 04:36:49;;;;;;;28.80;14.05;;;8.30;99.90;;;;;;5011040;28;20077;-87
2021/12/29 04:39:14;;;;;;;26.85;14.60;;;8.40;99.90;;;;;;5011452;28;20131;-87
2021/12/29 04:41:40;;;;;;;25.33;13.82;;;8.30;99.90;;;;;;5011460;28;20539;-87
2021/12/29 04:44:06;;;;;;;28.65;13.95;;;8.40;99.90;;;;;;5010653;28;20041;-87
2021/12/29 04:46:40;;;;;;;23.00;12.23;;;8.40;99.90;;;;;;4995220;28;20041;-87
2021/12/29 04:49:09;;;;;;;23.38;12.60;;;8.40;99.90;;;;;;5010900;28;20038;-87
2021/12/29 04:51:36;;;;;;;21.33;12.90;;;8.30;99.90;;;;;;5027999;28;20057;-87
2021/12/29 04:54:05;;;;;;;22.02;13.32;;;8.30;99.90;;;;;;5000481;28;20022;-86
2021/12/29 04:56:31;;;;;;;23.05;11.77;;;8.30;99.90;;;;;;4997603;28;20518;-86
2021/12/29 04:58:57;;;;;;;24.38;12.93;;;8.30;99.90;;;;;;4993635;28;20125;-87
2021/12/29 05:01:23;;;;;;;27.10;13.20;;;8.30;99.90;;;;;;4993273;28;20133;-87
2021/12/29 05:03:48;;;;;;;23.98;12.77;;;8.30;99.90;;;;;;4984438;28;20554;-86
2021/12/29 05:08:40;;;;;;;28.80;12.95;;;8.30;99.90;;;;;;5027525;28;20149;-86
2021/12/29 05:11:08;;;;;;;24.55;12.80;;;8.30;99.90;;;;;;5010681;28;20403;-86
2021/12/29 05:13:37;;;;;;;29.30;14.52;;;8.30;99.90;;;;;;5010895;28;20038;-86
2021/12/29 05:16:04;;;;;;;27.85;13.95;;;8.30;99.90;;;;;;5010835;28;20038;-87
2021/12/29 05:18:31;;;;;;;26.83;14.07;;;8.30;99.90;;;;;;5010672;28;20061;-87
2021/12/29 05:20:59;;;;;;;25.98;14.25;;;8.30;99.90;;;;;;5010672;28;20045;-87
2021/12/29 05:23:24;;;;;;;25.45;14.00;;;8.30;99.90;;;;;;5010276;28;20049;-87
2021/12/29 05:25:51;;;;;;;27.13;13.15;;;8.30;99.90;;;;;;4994084;28;20042;-87
2021/12/29 05:28:17;;;;;;;25.73;14.68;;;8.30;99.90;;;;;;5010528;28;20084;-87
2021/12/29 05:30:43;;;;;;;27.58;13.60;;;8.30;99.90;;;;;;4993880;28;20038;-87
2021/12/29 05:33:09;;;;;;;25.05;13.93;;;8.30;99.90;;;;;;5010492;28;20177;-86
2021/12/29 05:35:35;;;;;;;24.25;14.27;;;8.30;99.90;;;;;;5010702;28;20038;-87
2021/12/29 05:38:01;;;;;;;25.00;14.13;;;8.30;99.90;;;;;;5010348;28;20411;-87
2021/12/29 05:40:27;;;;;;;31.63;15.23;;;8.30;99.90;;;;;;5010218;28;20042;-87
2021/12/29 05:42:53;;;;;;;26.88;14.43;;;8.30;99.90;;;;;;5010152;28;20073;-87
2021/12/29 05:45:18;;;;;;;28.80;15.05;;;8.30;99.90;;;;;;4993781;28;20034;-87
2021/12/29 05:47:45;;;;;;;30.08;15.85;;;8.30;99.90;;;;;;4994359;28;20084;-87
2021/12/29 05:50:16;;;;;;;30.30;16.33;;;8.30;99.90;;;;;;5010000;28;20100;-87
2021/12/29 05:52:41;;;;;;;27.40;15.02;;;8.30;99.90;;;;;;5010104;28;20041;-87
2021/12/29 05:55:08;;;;;;;34.40;17.05;;;8.20;99.90;;;;;;5010272;28;20058;-87
2021/12/29 05:57:34;;;;;;;27.48;16.67;;;8.20;99.90;;;;;;5009533;28;20042;-87
2021/12/29 05:59:59;;;;;;;29.77;16.75;;;8.20;99.90;;;;;;5009971;28;20119;-87
2021/12/29 06:02:25;;;;;;;30.83;15.52;;;8.30;99.90;;;;;;4993578;28;20057;-87
2021/12/29 06:04:51;;;;;;;30.00;17.70;;;8.30;99.90;;;;;;5008852;28;20041;-87
2021/12/29 06:07:16;;;;;;;32.25;16.92;;;8.20;99.90;;;;;;5010135;28;20587;-87
2021/12/29 06:09:42;;;;;;;32.75;16.35;;;8.30;99.90;;;;;;4993191;28;20092;-87
2021/12/29 06:12:08;;;;;;;27.83;15.65;;;8.30;99.90;;;;;;5010242;28;20419;-87
2021/12/29 06:14:34;;;;;;;27.95;16.85;;;8.30;99.90;;;;;;4993267;28;20042;-87
2021/12/29 06:17:00;;;;;;;28.25;16.38;;;8.30;99.90;;;;;;5009964;28;20392;-87
2021/12/29 06:19:25;;;;;;;29.25;16.45;;;8.30;99.90;;;;;;5009840;28;20041;-87
2021/12/29 06:21:51;;;;;;;28.42;15.30;;;8.30;99.90;;;;;;5009338;28;20042;-87
2021/12/29 06:24:17;;;;;;;28.15;14.30;;;8.30;99.90;;;;;;5009568;28;20042;-87
2021/12/29 06:26:43;;;;;;;28.95;15.23;;;8.30;99.90;;;;;;5009689;28;20033;-87
2021/12/29 06:29:09;;;;;;;27.20;14.70;;;8.30;99.90;;;;;;5009521;28;20153;-87
2021/12/29 06:31:34;;;;;;;26.13;14.35;;;8.30;99.90;;;;;;5025797;28;20120;-87
2021/12/29 06:34:02;;;;;;;23.95;14.25;;;8.30;99.90;;;;;;5009555;28;20530;-87
2021/12/29 06:36:28;;;;;;;26.77;14.32;;;8.30;99.90;;;;;;5009795;28;20042;-87
2021/12/29 06:38:54;;;;;;;27.02;14.38;;;8.30;99.90;;;;;;5009913;28;20453;-86
2021/12/29 06:41:20;;;;;;;25.60;13.35;;;8.30;99.90;;;;;;4992953;28;20496;-87
2021/12/29 06:43:46;;;;;;;24.27;12.20;;;8.30;99.90;;;;;;5009241;28;20042;-87
2021/12/29 06:46:11;;;;;;;23.95;12.70;;;8.30;99.90;;;;;;5026066;28;20040;-87
2021/12/29 06:48:37;;;;;;;25.67;13.60;;;8.30;99.90;;;;;;4993344;28;20128;-87
2021/12/29 06:51:02;;;;;;;24.50;12.18;;;8.30;99.90;;;;;;5009927;28;20042;-87
2021/12/29 06:53:30;;;;;;;26.50;12.10;;;8.30;99.90;;;;;;4993036;28;20574;-87
2021/12/29 06:55:56;;;;;;;28.13;12.93;;;8.30;99.90;;;;;;5026804;28;20116;-87
2021/12/29 06:58:22;;;;;;;26.60;12.60;;;8.30;99.90;;;;;;5009687;28;20130;-87
2021/12/29 07:00:47;;;;;;;25.60;12.85;;;8.30;99.90;;;;;;5009369;28;20042;-86
2021/12/29 07:03:13;;;;;;;27.00;13.25;;;8.30;99.90;;;;;;5008213;28;20104;-87
2021/12/29 07:05:40;;;;;;;28.25;13.52;;;8.30;99.90;;;;;;4993284;28;20033;-87
2021/12/29 07:08:06;;;;;;;27.83;13.57;;;8.30;99.90;;;;;;5011428;28;20487;-87
2021/12/29 07:10:32;;;;;;;30.85;15.13;;;8.30;99.90;;;;;;5012840;28;20084;-87
2021/12/29 07:12:57;;;;;;;34.55;15.50;;;8.30;99.90;;;;;;5013351;28;20049;-87
2021/12/29 07:15:23;;;;;;;31.45;14.98;;;8.30;99.90;;;;;;4996703;28;20388;-87
2021/12/29 07:17:48;;;;;;;39.22;15.43;;;8.30;99.90;;;;;;5013213;28;20132;-87
2021/12/29 07:20:14;;;;;;;43.03;16.45;;;8.30;99.90;;;;;;5012849;28;20042;-87
2021/12/29 07:22:40;;;;;;;37.30;15.65;;;8.30;99.90;;;;;;5012882;28;20081;-87
2021/12/29 07:25:06;;;;;;;44.05;15.57;;;8.30;99.90;;;;;;5012624;28;20038;-87
2021/12/29 07:27:31;;;;;;;40.05;17.08;;;8.30;99.90;;;;;;4996450;28;20077;-87
2021/12/29 07:29:57;;;;;;;42.08;16.65;;;8.30;99.90;;;;;;5012558;28;20447;-87
2021/12/29 07:32:22;;;;;;;41.83;16.77;;;8.30;99.90;;;;;;5012825;28;20045;-86
2021/12/29 07:34:48;;;;;;;46.40;17.20;;;8.30;99.90;;;;;;4996029;28;20042;-86
2021/12/29 07:37:14;;;;;;;43.00;15.90;;;8.30;99.90;;;;;;5012998;28;20042;-87
2021/12/29 07:39:40;;;;;;;43.30;16.40;;;8.30;99.90;;;;;;5012538;28;20106;-87
2021/12/29 07:42:06;;;;;;;37.28;15.32;;;8.30;99.90;;;;;;4996149;28;20524;-87
2021/12/29 07:44:32;;;;;;;32.72;15.70;;;8.30;99.90;;;;;;4995871;28;20048;-86
2021/12/29 07:46:59;;;;;;;38.17;14.52;;;8.30;99.90;;;;;;4996201;28;20034;-87
2021/12/29 07:49:26;;;;;;;45.30;15.00;;;8.30;99.90;;;;;;5012322;28;20542;-87
2021/12/29 07:51:53;;;;;;;41.88;15.75;;;8.30;99.90;;;;;;4996064;28;20038;-88
2021/12/29 07:54:19;;;;;;;45.28;16.17;;;8.30;99.90;;;;;;5011841;28;20038;-86
2021/12/29 07:56:45;;;;;;;42.95;15.43;;;8.30;99.90;;;;;;4996022;28;20044;-87
2021/12/29 07:59:11;;;;;;;40.63;15.30;;;8.30;99.90;;;;;;4995757;28;20042;-87
2021/12/29 08:01:39;;;;;;;47.53;16.35;;;8.40;99.90;;;;;;5012346;28;20089;-87
2021/12/29 08:04:05;;;;;;;44.15;15.48;;;8.40;99.90;;;;;;4995744;28;20562;-87
2021/12/29 08:06:30;;;;;;;44.55;16.58;;;8.40;99.90;;;;;;4995713;28;20038;-87
2021/12/29 08:08:56;;;;;;;46.35;16.15;;;8.40;99.90;;;;;;4995635;28;20076;-87
2021/12/29 08:11:22;;;;;;;47.22;17.48;;;8.40;99.90;;;;;;4995246;28;20042;-87
2021/12/29 08:13:48;;;;;;;46.90;16.40;;;8.40;99.90;;;;;;5011759;28;20045;-87
2021/12/29 08:16:14;;;;;;;41.05;16.02;;;8.40;99.90;;;;;;4995598;28;20530;-87
2021/12/29 08:18:40;;;;;;;44.67;16.30;;;8.40;99.90;;;;;;5011713;28;20046;-87
2021/12/29 08:21:06;;;;;;;37.35;14.70;;;8.40;99.90;;;;;;5011320;28;20073;-87
2021/12/29 08:23:32;;;;;;;45.63;15.80;;;8.40;99.90;;;;;;5011608;28;20037;-87
2021/12/29 08:25:59;;;;;;;42.47;15.88;;;8.40;99.90;;;;;;5011510;28;20038;-86
2021/12/29 08:28:25;;;;;;;36.35;14.70;;;8.40;99.90;;;;;;5011684;28;20069;-87
2021/12/29 08:30:52;;;;;;;41.15;15.85;;;8.40;99.90;;;;;;5011613;28;20069;-87
2021/12/29 08:33:18;;;;;;;41.95;16.77;;;8.40;99.90;;;;;;4994974;28;20052;-86
2021/12/29 08:35:44;;;;;;;41.40;17.38;;;8.50;99.90;;;;;;4994613;28;20488;-87
2021/12/29 08:38:09;;;;;;;39.13;16.58;;;8.50;99.90;;;;;;4994993;28;20054;-86
2021/12/29 08:40:35;;;;;;;37.33;15.02;;;8.50;99.90;;;;;;5011118;28;20136;-86
2021/12/29 08:43:03;;;;;;;34.47;15.48;;;8.50;99.90;;;;;;5011746;28;20462;-87
2021/12/29 08:45:30;;;;;;;37.80;14.30;;;8.50;99.90;;;;;;4994674;28;20507;-88
2021/12/29 08:47:58;;;;;;;31.25;14.02;;;8.50;99.90;;;;;;5011498;28;20069;-86
2021/12/29 08:50:29;;;;;;;29.75;13.82;;;8.60;99.90;;;;;;5011283;28;20038;-86
2021/12/29 08:52:59;;;;;;;29.35;10.90;;;8.60;99.90;;;;;;4995095;28;20041;-87
2021/12/29 08:55:25;;;;;;;32.60;12.52;;;8.60;99.90;;;;;;4994690;28;20068;-86
2021/12/29 08:57:51;;;;;;;26.80;12.07;;;8.60;99.90;;;;;;5011581;28;20050;-87
2021/12/29 09:00:19;;;;;;;26.15;11.95;;;8.60;99.90;;;;;;5010678;28;20668;-86
2021/12/29 09:02:44;;;;;;;31.23;11.50;;;8.60;99.90;;;;;;5010620;28;20092;-87
2021/12/29 09:05:12;;;;;;;25.60;12.07;;;8.60;99.90;;;;;;5010416;28;20038;-86
2021/12/29 09:07:38;;;;;;;27.17;11.13;;;8.70;99.90;;;;;;4994634;28;20041;-86
2021/12/29 09:10:06;;;;;;;27.42;11.07;;;8.70;99.90;;;;;;4994633;28;20034;-86
2021/12/29 09:12:32;;;;;;;29.67;12.13;;;8.70;99.90;;;;;;5010720;28;20033;-86
2021/12/29 09:14:57;;;;;;;30.33;11.30;;;8.70;99.90;;;;;;4994423;28;20191;-86
2021/12/29 09:17:23;;;;;;;39.25;12.13;;;8.70;99.90;;;;;;5010866;28;20514;-87
2021/12/29 09:19:49;;;;;;;35.58;12.23;;;8.70;99.90;;;;;;4994586;28;20053;-86
2021/12/29 09:22:15;;;;;;;34.53;12.50;;;8.70;99.90;;;;;;4994444;28;20038;-86
2021/12/29 09:24:42;;;;;;;32.35;12.18;;;8.70;99.90;;;;;;5010102;28;20101;-86
2021/12/29 09:27:08;;;;;;;33.20;12.93;;;8.80;99.90;;;;;;4994581;28;20042;-86
2021/12/29 09:29:34;;;;;;;27.77;11.57;;;8.70;99.90;;;;;;5011060;28;20034;-86
2021/12/29 09:32:02;;;;;;;27.08;11.70;;;8.80;99.90;;;;;;5009599;28;20546;-87
2021/12/29 09:34:27;;;;;;;25.45;11.05;;;8.80;99.90;;;;;;5010102;28;20054;-87
2021/12/29 09:36:53;;;;;;;26.90;12.68;;;8.80;99.90;;;;;;5010432;28;20046;-87
2021/12/29 09:39:19;;;;;;;25.80;11.45;;;8.80;99.90;;;;;;5010713;28;20124;-87
2021/12/29 09:41:44;;;;;;;25.00;10.35;;;8.80;99.90;;;;;;5010044;28;20080;-87
2021/12/29 09:44:11;;;;;;;25.20;10.73;;;8.80;99.90;;;;;;4994058;28;20521;-87
2021/12/29 09:46:38;;;;;;;24.67;11.32;;;8.90;99.90;;;;;;5010593;28;20049;-88
2021/12/29 09:49:04;;;;;;;22.25;10.52;;;8.90;99.90;;;;;;5010628;28;20042;-87
2021/12/29 09:51:29;;;;;;;23.38;10.35;;;8.90;99.90;;;;;;5010124;28;20046;-87
2021/12/29 09:53:55;;;;;;;22.30;10.82;;;8.90;99.90;;;;;;4991454;28;20037;-87
2021/12/29 09:56:21;;;;;;;26.15;11.27;;;8.90;99.90;;;;;;5010111;28;20038;-87
2021/12/29 09:58:47;;;;;;;23.73;10.63;;;8.90;99.90;;;;;;5010328;28;20041;-87
2021/12/29 10:01:12;;;;;;;21.13;10.65;;;9.00;99.90;;;;;;5010041;28;20038;-87
2021/12/29 10:03:41;;;;;;;24.88;10.73;;;9.00;99.90;;;;;;4989579;28;20439;-86
2021/12/29 10:06:09;;;;;;;21.17;10.18;;;9.00;99.90;;;;;;4974432;28;20057;-87
2021/12/29 10:08:43;;;;;;;25.27;10.77;;;9.00;99.90;;;;;;4990232;28;20612;-87
2021/12/29 10:11:15;;;;;;;22.27;9.85;;;9.00;99.90;;;;;;4973994;28;20040;-88
2021/12/29 10:13:45;;;;;;;26.40;11.32;;;9.00;99.90;;;;;;4990643;28;20092;-87
2021/12/29 10:16:14;;;;;;;27.15;12.20;;;9.00;99.90;;;;;;4990377;28;20129;-87
2021/12/29 10:18:43;;;;;;;26.50;12.05;;;9.00;99.90;;;;;;4990547;28;20105;-86
2021/12/29 10:21:22;;;;;;;29.23;12.45;;;9.00;99.90;;;;;;4998904;28;20045;-87
2021/12/29 10:23:51;;;;;;;22.98;11.38;;;9.10;99.90;;;;;;5010009;28;20052;-87
2021/12/29 10:26:23;;;;;;;23.75;11.68;;;9.00;99.90;;;;;;4993613;28;20076;-87
2021/12/29 10:28:54;;;;;;;24.00;11.70;;;9.10;99.90;;;;;;5009915;28;20037;-88
2021/12/29 10:31:42;;;;;;;22.50;11.23;;;9.10;99.90;;;;;;5004752;28;20072;-87
2021/12/29 10:34:12;;;;;;;27.55;11.50;;;9.00;99.90;;;;;;5002613;28;20062;-88
2021/12/29 10:36:44;;;;;;;23.17;11.80;;;9.10;99.90;;;;;;5012050;28;20042;-87
2021/12/29 10:39:09;;;;;;;24.88;11.98;;;9.10;99.90;;;;;;5012127;28;20408;-88
2021/12/29 10:41:48;;;;;;;29.27;12.48;;;9.10;99.90;;;;;;5008634;28;20089;-87
2021/12/29 10:44:15;;;;;;;23.75;11.93;;;9.10;99.90;;;;;;5025807;28;20072;-85
2021/12/29 10:46:41;;;;;;;25.75;12.07;;;9.10;99.90;;;;;;5013028;28;20045;-86
2021/12/29 10:49:09;;;;;;;26.00;11.80;;;9.10;99.90;;;;;;5012262;28;20029;-85
2021/12/29 10:51:37;;;;;;;21.88;11.80;;;9.10;99.90;;;;;;4996672;28;20507;-88
2021/12/29 10:54:14;;;;;;;21.85;11.40;;;9.10;99.90;;;;;;5013606;28;20111;-88
2021/12/29 10:56:46;;;;;;;23.10;11.02;;;9.10;99.90;;;;;;4995867;28;20076;-87
2021/12/29 10:59:23;;;;;;;18.27;9.27;;;9.20;99.90;;;;;;5011945;28;20049;-87
2021/12/29 11:01:50;;;;;;;24.05;10.93;;;9.20;99.90;;;;;;4992535;28;20084;-87
2021/12/29 11:04:17;;;;;;;19.77;10.15;;;9.20;99.90;;;;;;4988918;28;20049;-87
2021/12/29 11:06:46;;;;;;;21.92;10.70;;;9.20;99.90;;;;;;4996349;28;20045;-86
2021/12/29 11:09:13;;;;;;;24.13;10.55;;;9.20;99.90;;;;;;5012600;28;20038;-87
2021/12/29 11:11:43;;;;;;;19.50;10.07;;;9.20;99.90;;;;;;5012727;28;20046;-87
2021/12/29 11:14:26;;;;;;;20.33;10.52;;;9.20;99.90;;;;;;4996683;28;20061;-87
2021/12/29 11:17:15;;;;;;;24.38;10.13;;;9.30;99.90;;;;;;5013104;28;20422;-88
2021/12/29 11:19:49;;;;;;;26.17;11.15;;;9.30;99.90;;;;;;4996918;28;20049;-87
2021/12/29 11:22:20;;;;;;;25.88;10.80;;;9.30;99.90;;;;;;4996954;28;20042;-87
2021/12/29 11:24:54;;;;;;;30.73;12.00;;;9.30;99.90;;;;;;4996324;28;20511;-87
2021/12/29 11:27:20;;;;;;;25.42;11.00;;;9.30;99.90;;;;;;5012827;28;20041;-87
2021/12/29 11:29:50;;;;;;;25.80;11.18;;;9.40;99.90;;;;;;5012812;28;20042;-87
2021/12/29 11:32:24;;;;;;;30.85;12.13;;;9.40;99.90;;;;;;5012401;28;20046;-87
2021/12/29 11:35:07;;;;;;;26.00;10.70;;;9.40;99.90;;;;;;5012458;28;20077;-87
2021/12/29 11:37:35;;;;;;;29.38;10.82;;;9.50;99.90;;;;;;4996538;28;20099;-87
2021/12/29 11:40:00;;;;;;;26.90;11.95;;;9.50;99.90;;;;;;5012368;28;20045;-87
2021/12/29 11:42:26;;;;;;;29.67;12.30;;;9.50;99.90;;;;;;4995895;28;20038;-87
2021/12/29 11:44:52;;;;;;;29.77;12.50;;;9.50;99.90;;;;;;5012206;28;20099;-87
2021/12/29 11:47:18;;;;;;;26.35;11.38;;;9.50;99.90;;;;;;5012286;28;20099;-87
2021/12/29 11:49:44;;;;;;;32.08;11.85;;;9.50;99.90;;;;;;4996279;28;20053;-87
2021/12/29 11:52:09;;;;;;;35.10;12.15;;;9.50;99.90;;;;;;5012264;28;20038;-87
2021/12/29 11:54:50;;;;;;;30.73;11.68;;;9.50;99.90;;;;;;5011036;28;20034;-87
2021/12/29 11:57:22;;;;;;;28.73;11.52;;;9.60;99.90;;;;;;4996282;28;20038;-87
2021/12/29 11:59:48;;;;;;;29.83;11.32;;;9.50;99.90;;;;;;4995849;28;20034;-87
2021/12/29 12:02:24;;;;;;;33.28;11.57;;;9.50;99.90;;;;;;4995424;28;20048;-87
2021/12/29 12:05:10;;;;;;;24.27;11.38;;;9.50;99.90;;;;;;5011111;28;20038;-87
2021/12/29 12:07:37;;;;;;;25.05;11.18;;;9.50;99.90;;;;;;5012408;28;20041;-88
2021/12/29 12:10:09;;;;;;;27.38;10.73;;;9.50;99.90;;;;;;5011951;28;20750;-87
2021/12/29 12:12:42;;;;;;;31.40;12.45;;;9.50;99.90;;;;;;5011878;28;20116;-87
2021/12/29 12:15:10;;;;;;;28.80;11.07;;;9.50;99.90;;;;;;5011705;28;20172;-87
2021/12/29 12:17:36;;;;;;;29.00;11.10;;;9.50;99.90;;;;;;4995727;28;20494;-87
2021/12/29 12:20:10;;;;;;;34.65;13.35;;;9.50;99.90;;;;;;5011891;28;20034;-87
2021/12/29 12:22:51;;;;;;;30.92;12.98;;;9.60;99.90;;;;;;5012112;28;20038;-87
2021/12/29 12:25:30;;;;;;;28.48;12.43;;;9.60;99.90;;;;;;5011746;28;20038;-87
2021/12/29 12:28:02;;;;;;;31.17;12.10;;;9.50;99.90;;;;;;5011765;28;20037;-87
2021/12/29 12:30:41;;;;;;;25.85;11.60;;;9.60;99.90;;;;;;4995477;28;20076;-87
2021/12/29 12:33:17;;;;;;;30.75;12.40;;;9.60;99.90;;;;;;5010873;28;20046;-87
2021/12/29 12:35:49;;;;;;;28.25;12.05;;;9.60;99.90;;;;;;5011530;28;20466;-87
2021/12/29 12:38:19;;;;;;;34.70;13.15;;;9.60;99.90;;;;;;4995418;28;20041;-87
2021/12/29 12:40:45;;;;;;;25.52;13.00;;;9.50;99.90;;;;;;5011333;28;20042;-87
2021/12/29 12:43:15;;;;;;;27.73;13.57;;;9.60;99.90;;;;;;5010876;28;20417;-87